createdAt,value
2022-10-28T00:01:22.814Z,97905.97
2022-10-28T00:03:52.054Z,97905.22
2022-10-28T00:06:30.184Z,97906.81
2022-10-28T00:09:03.781Z,97912.19
2022-10-28T00:11:34.209Z,97904.81
2022-10-28T00:14:07.029Z,97909.13
2022-10-28T00:16:38.165Z,97903.31
2022-10-28T00:19:11.965Z,97914.94
2022-10-28T00:21:40.599Z,97912.66
2022-10-28T00:24:10.916Z,97911.16
2022-10-28T00:26:42.293Z,97908.81
2022-10-28T00:29:17.831Z,97903.81
2022-10-28T00:31:45.085Z,97914.31
2022-10-28T00:34:14.691Z,97906.97
2022-10-28T00:36:46.761Z,97910.88
2022-10-28T00:39:20.207Z,97910.50
2022-10-28T00:41:49.961Z,97905.47
2022-10-28T00:44:43.608Z,97912.47
2022-10-28T00:47:29.972Z,97900.03
2022-10-28T00:50:03.375Z,97909.75
2022-10-28T00:52:31.714Z,97903.56
2022-10-28T00:55:02.911Z,97914.03
2022-10-28T00:57:33.634Z,97910.56
2022-10-28T01:00:02.796Z,97907.50
2022-10-28T01:02:31.597Z,97907.50
2022-10-28T01:05:00.525Z,97910.59
2022-10-28T01:07:27.490Z,97899.03
2022-10-28T01:09:56.798Z,97902.06
2022-10-28T01:12:43.402Z,97887.72
2022-10-28T01:15:42.197Z,97897.81
2022-10-28T01:18:24.843Z,97900.13
2022-10-28T01:21:24.188Z,97896.25
2022-10-28T01:24:08.931Z,97894.69
2022-10-28T01:26:56.714Z,97891.97
2022-10-28T01:29:35.382Z,97894.72
2022-10-28T01:32:17.665Z,97895.94
2022-10-28T01:34:54.264Z,97885.47
2022-10-28T01:37:23.499Z,97892.13
2022-10-28T01:39:55.822Z,97896.81
2022-10-28T01:42:32.073Z,97895.28
2022-10-28T01:45:07.787Z,97900.72
2022-10-28T01:47:59.196Z,97898.00
2022-10-28T01:50:52.688Z,97897.63
2022-10-28T01:53:24.235Z,97907.38
2022-10-28T01:55:55.494Z,97900.41
2022-10-28T01:58:29.222Z,97897.28
2022-10-28T02:00:57.811Z,97892.22
2022-10-28T02:03:24.371Z,97885.59
2022-10-28T02:05:57.748Z,97894.50
2022-10-28T02:08:44.012Z,97889.91
2022-10-28T02:11:22.635Z,97890.63
2022-10-28T02:14:01.291Z,97900.31
2022-10-28T02:16:33.109Z,97897.63
2022-10-28T02:19:36.278Z,97900.31
2022-10-28T02:22:13.559Z,97899.22
2022-10-28T02:25:05.664Z,97890.69
2022-10-28T02:27:35.100Z,97900.03
2022-10-28T02:30:06.783Z,97904.69
2022-10-28T02:32:42.714Z,97895.41
2022-10-28T02:35:19.936Z,97898.16
2022-10-28T02:37:51.422Z,97897.00
2022-10-28T02:40:26.346Z,97892.34
2022-10-28T02:42:58.531Z,97895.06
2022-10-28T02:45:33.136Z,97893.50
2022-10-28T02:48:05.592Z,97894.28
2022-10-28T02:50:39.683Z,97891.50
2022-10-28T02:53:14.173Z,97887.19
2022-10-28T02:55:49.182Z,97880.94
2022-10-28T02:58:18.372Z,97876.59
2022-10-28T03:00:46.446Z,97875.00
2022-10-28T03:03:13.851Z,97874.22
2022-10-28T03:05:42.575Z,97873.81
2022-10-28T03:08:09.128Z,97871.03
2022-10-28T03:10:35.653Z,97878.41
2022-10-28T03:13:02.552Z,97878.41
2022-10-28T03:15:31.583Z,97873.34
2022-10-28T03:18:00.363Z,97877.56
2022-10-28T03:20:26.854Z,97877.22
2022-10-28T03:22:53.511Z,97865.94
2022-10-28T03:25:23.159Z,97877.56
2022-10-28T03:27:49.661Z,97877.56
2022-10-28T03:30:18.497Z,97882.59
2022-10-28T03:32:47.747Z,97876.75
2022-10-28T03:35:14.371Z,97885.69
2022-10-28T03:37:43.331Z,97877.16
2022-10-28T03:40:11.377Z,97881.03
2022-10-28T03:42:41.214Z,97884.53
2022-10-28T03:45:08.762Z,97883.75
2022-10-28T03:47:37.573Z,97875.59
2022-10-28T03:50:04.665Z,97876.38
2022-10-28T03:52:31.186Z,97884.50
2022-10-28T03:54:57.734Z,97881.03
2022-10-28T03:57:24.849Z,97882.19
2022-10-28T03:59:53.947Z,97881.13
2022-10-28T04:02:23.017Z,97871.88
2022-10-28T04:04:49.785Z,97875.81
2022-10-28T04:07:16.333Z,97871.56
2022-10-28T04:09:42.945Z,97871.50
2022-10-28T04:12:10.878Z,97867.66
2022-10-28T04:14:37.837Z,97862.69
2022-10-28T04:17:05.509Z,97878.28
2022-10-28T04:19:32.073Z,97882.88
2022-10-28T04:21:58.582Z,97877.44
2022-10-28T04:24:25.493Z,97870.84
2022-10-28T04:26:52.025Z,97875.06
2022-10-28T04:29:19.379Z,97881.28
2022-10-28T04:31:48.623Z,97880.88
2022-10-28T04:34:17.954Z,97879.69
2022-10-28T04:36:44.479Z,97894.78
2022-10-28T04:39:11.099Z,97870.00
2022-10-28T04:41:37.630Z,97876.16
2022-10-28T04:44:04.248Z,97879.63
2022-10-28T04:46:30.773Z,97867.19
2022-10-28T04:48:57.313Z,97875.69
2022-10-28T04:51:28.383Z,97869.81
2022-10-28T04:53:57.132Z,97867.84
2022-10-28T04:56:23.707Z,97855.03
2022-10-28T04:58:53.070Z,97864.28
2022-10-28T05:01:24.380Z,97877.09
2022-10-28T05:03:51.354Z,97875.16
2022-10-28T05:06:20.216Z,97870.09
2022-10-28T05:08:46.765Z,97880.59
2022-10-28T05:11:13.665Z,97872.81
2022-10-28T05:13:40.216Z,97873.66
2022-10-28T05:16:07.385Z,97877.09
2022-10-28T05:18:33.969Z,97878.63
2022-10-28T05:21:02.877Z,97868.94
2022-10-28T05:23:31.745Z,97871.25
2022-10-28T05:25:58.426Z,97874.34
2022-10-28T05:28:25.012Z,97880.50
2022-10-28T05:30:51.924Z,97871.19
2022-10-28T05:33:18.496Z,97867.34
2022-10-28T05:35:47.653Z,97862.69
2022-10-28T05:38:16.662Z,97869.63
2022-10-28T05:40:43.288Z,97868.84
2022-10-28T05:43:10.600Z,97877.34
2022-10-28T05:45:37.662Z,97871.16
2022-10-28T05:48:06.961Z,97868.03
2022-10-28T05:50:33.873Z,97859.09
2022-10-28T05:53:00.480Z,97850.59
2022-10-28T05:55:31.541Z,97876.19
2022-10-28T05:58:03.115Z,97864.50
2022-10-28T06:00:30.952Z,97857.19
2022-10-28T06:03:10.179Z,97869.16
2022-10-28T06:05:41.649Z,97871.47
2022-10-28T06:08:12.770Z,97868.38
2022-10-28T06:10:42.664Z,97874.16
2022-10-28T06:13:08.126Z,97874.56
2022-10-28T06:15:37.046Z,97876.50
2022-10-28T06:18:03.716Z,97873.00
2022-10-28T06:20:32.534Z,97866.41
2022-10-28T06:23:06.756Z,97871.06
2022-10-28T06:25:36.239Z,97879.16
2022-10-28T06:28:09.620Z,97885.34
2022-10-28T06:30:37.013Z,97875.66
2022-10-28T06:33:05.729Z,97883.81
2022-10-28T06:35:32.623Z,97885.34
2022-10-28T06:38:03.743Z,97880.69
2022-10-28T06:40:32.415Z,97876.41
2022-10-28T06:43:00.926Z,97889.94
2022-10-28T06:45:31.494Z,97895.75
2022-10-28T06:48:01.675Z,97892.63
2022-10-28T06:50:32.185Z,97889.91
2022-10-28T06:52:59.327Z,97895.31
2022-10-28T06:55:27.009Z,97901.53
2022-10-28T06:57:54.685Z,97903.06
2022-10-28T07:00:23.880Z,97898.03
2022-10-28T07:02:56.676Z,97894.56
2022-10-28T07:05:26.195Z,97898.03
2022-10-28T07:07:56.013Z,97902.28
2022-10-28T07:10:25.108Z,97904.97
2022-10-28T07:12:53.169Z,97902.19
2022-10-28T07:15:23.352Z,97909.94
2022-10-28T07:17:58.416Z,97911.81
2022-10-28T07:20:27.105Z,97913.72
2022-10-28T07:23:00.279Z,97896.63
2022-10-28T07:25:33.650Z,97908.19
2022-10-28T07:28:00.603Z,97910.03
2022-10-28T07:30:30.277Z,97919.72
2022-10-28T07:33:00.890Z,97910.00
2022-10-28T07:35:30.882Z,97921.19
2022-10-28T07:37:58.800Z,97924.66
2022-10-28T07:40:27.987Z,97913.75
2022-10-28T07:42:57.466Z,97927.69
2022-10-28T07:45:26.698Z,97930.75
2022-10-28T07:47:55.504Z,97929.13
2022-10-28T07:50:22.536Z,97927.53
2022-10-28T07:52:49.095Z,97927.63
2022-10-28T07:55:17.879Z,97930.63
2022-10-28T07:57:47.210Z,97931.38
2022-10-28T08:00:18.627Z,97929.78
2022-10-28T08:02:48.145Z,97930.91
2022-10-28T08:05:14.857Z,97928.06
2022-10-28T08:07:43.511Z,97923.38
2022-10-28T08:10:14.796Z,97930.69
2022-10-28T08:12:43.742Z,97931.47
2022-10-28T08:15:10.791Z,97939.50
2022-10-28T08:17:37.746Z,97932.50
2022-10-28T08:20:05.688Z,97936.31
2022-10-28T08:22:32.226Z,97926.97
2022-10-28T08:25:03.711Z,97937.31
2022-10-28T08:27:30.751Z,97930.19
2022-10-28T08:29:57.284Z,97929.78
2022-10-28T08:32:26.095Z,97928.97
2022-10-28T08:34:55.032Z,97945.50
2022-10-28T08:37:24.399Z,97947.69
2022-10-28T08:39:53.618Z,97937.94
2022-10-28T08:42:31.588Z,97938.28
2022-10-28T08:45:01.065Z,97931.41
2022-10-28T08:47:27.514Z,97936.44
2022-10-28T08:50:02.659Z,97942.09
2022-10-28T08:53:01.313Z,97938.78
2022-10-28T08:55:41.179Z,97939.41
2022-10-28T08:58:11.338Z,97942.38
2022-10-28T09:00:40.732Z,97938.88
2022-10-28T09:03:14.410Z,97936.50
2022-10-28T09:05:50.150Z,97940.22
2022-10-28T09:08:23.713Z,97949.09
2022-10-28T09:11:26.373Z,97949.09
2022-10-28T09:14:08.987Z,97943.50
2022-10-28T09:16:49.188Z,97940.25
2022-10-28T09:19:28.753Z,97941.53
2022-10-28T09:22:25.394Z,97941.44
2022-10-28T09:24:54.017Z,97948.19
2022-10-28T09:27:49.804Z,97949.31
2022-10-28T09:30:44.029Z,97945.81
2022-10-28T09:33:22.711Z,97949.63
2022-10-28T09:35:54.060Z,97952.81
2022-10-28T09:38:40.129Z,97955.09
2022-10-28T09:41:12.907Z,97948.44
2022-10-28T09:43:54.951Z,97951.91
2022-10-28T09:46:23.960Z,97956.81
2022-10-28T09:48:55.003Z,97952.06
2022-10-28T09:51:33.620Z,97953.94
2022-10-28T09:54:04.420Z,97943.09
2022-10-28T09:56:33.445Z,97939.22
2022-10-28T09:59:04.268Z,97942.22
2022-10-28T10:01:38.550Z,97942.34
2022-10-28T10:04:23.342Z,97940.19
2022-10-28T10:07:02.591Z,97946.97
2022-10-28T10:09:35.086Z,97941.41
2022-10-28T10:12:14.647Z,97948.41
2022-10-28T10:14:49.482Z,97946.84
2022-10-28T10:17:20.252Z,97946.72
2022-10-28T10:20:19.095Z,97948.38
2022-10-28T10:22:48.217Z,97940.34
2022-10-28T10:25:22.939Z,97943.94
2022-10-28T10:28:01.751Z,97945.47
2022-10-28T10:30:48.175Z,97944.28
2022-10-28T10:33:23.998Z,97938.03
2022-10-28T10:36:01.133Z,97929.94
2022-10-28T10:38:30.188Z,97919.34
2022-10-28T10:40:57.179Z,97914.84
2022-10-28T10:43:29.392Z,97906.78
2022-10-28T10:46:16.573Z,97912.00
2022-10-28T10:48:45.690Z,97888.09
2022-10-28T10:51:25.085Z,97896.66
2022-10-28T10:54:01.189Z,97895.56
2022-10-28T10:56:32.695Z,97898.06
2022-10-28T10:59:06.324Z,97901.56
2022-10-28T11:01:38.833Z,97895.22
2022-10-28T11:04:07.947Z,97893.94
2022-10-28T11:06:40.890Z,97868.94
2022-10-28T11:09:35.243Z,97878.47
2022-10-28T11:12:15.581Z,97878.34
2022-10-28T11:14:58.333Z,97870.56
2022-10-28T11:17:34.063Z,97872.75
2022-10-28T11:20:26.301Z,97869.78
2022-10-28T11:23:19.948Z,97863.53
2022-10-28T11:25:50.629Z,97854.47
2022-10-28T11:28:33.487Z,97868.84
2022-10-28T11:31:30.028Z,97860.97
2022-10-28T11:34:20.696Z,97865.38
2022-10-28T11:37:21.389Z,97855.19
2022-10-28T11:40:03.210Z,97854.56
2022-10-28T11:42:47.938Z,97853.34
2022-10-28T11:45:23.936Z,97846.44
2022-10-28T11:48:24.363Z,97848.50
2022-10-28T11:50:53.784Z,97848.41
2022-10-28T11:53:42.209Z,97841.63
2022-10-28T11:57:07.549Z,97832.84
2022-10-28T11:59:55.562Z,97834.31
2022-10-28T12:02:40.752Z,97826.78
2022-10-28T12:05:28.099Z,97820.00
2022-10-28T12:08:23.038Z,97823.13
2022-10-28T12:11:13.805Z,97817.56
2022-10-28T12:13:48.808Z,97816.88
2022-10-28T12:16:31.088Z,97810.94
2022-10-28T12:19:03.872Z,97804.78
2022-10-28T12:21:38.931Z,97810.69
2022-10-28T12:24:16.679Z,97800.16
2022-10-28T12:26:56.911Z,97789.09
2022-10-28T12:29:27.777Z,97795.66
2022-10-28T12:32:01.123Z,97795.09
2022-10-28T12:37:28.714Z,97796.41
2022-10-28T12:40:05.100Z,97791.25
2022-10-28T12:42:44.642Z,97790.47
2022-10-28T12:45:17.367Z,97786.50
2022-10-28T12:48:15.312Z,97788.75
2022-10-28T12:50:49.129Z,97790.16
2022-10-28T12:53:17.924Z,97792.25
2022-10-28T12:55:52.859Z,97792.56
2022-10-28T12:58:29.719Z,97783.25
2022-10-28T13:01:04.422Z,97786.00
2022-10-28T13:03:35.769Z,97786.19
2022-10-28T13:09:51.598Z,97785.88
2022-10-28T13:12:44.729Z,97784.66
2022-10-28T13:15:45.242Z,97777.09
2022-10-28T13:18:34.719Z,97786.41
2022-10-28T13:21:25.266Z,97774.13
2022-10-28T13:24:02.269Z,97776.50
2022-10-28T13:26:30.118Z,97772.16
2022-10-28T13:28:59.557Z,97777.63
2022-10-28T13:31:44.333Z,97766.19
2022-10-28T13:34:14.757Z,97759.09
2022-10-28T13:36:47.489Z,97768.59
2022-10-28T13:39:27.843Z,97775.44
2022-10-28T13:42:44.833Z,97782.59
2022-10-28T13:45:56.624Z,97778.72
2022-10-28T13:48:29.345Z,97776.41
2022-10-28T13:51:15.764Z,97769.81
2022-10-28T13:53:47.857Z,97777.16
2022-10-28T13:56:41.667Z,97773.66
2022-10-28T13:59:16.625Z,97771.34
2022-10-28T14:02:35.229Z,97769.63
2022-10-28T14:05:16.831Z,97760.56
2022-10-28T14:07:58.698Z,97753.59
2022-10-28T14:10:27.896Z,97754.31
2022-10-28T14:13:01.124Z,97756.47
2022-10-28T14:15:40.813Z,97756.47
2022-10-28T14:18:42.269Z,97764.59
2022-10-28T14:21:12.329Z,97766.44
2022-10-28T14:23:47.184Z,97768.16
2022-10-28T14:26:13.753Z,97766.19
2022-10-28T14:28:42.277Z,97768.81
2022-10-28T14:31:08.898Z,97763.75
2022-10-28T14:33:44.688Z,97763.63
2022-10-28T14:36:17.504Z,97762.97
2022-10-28T14:38:55.500Z,97765.91
2022-10-28T14:41:34.350Z,97767.19
2022-10-28T14:44:25.714Z,97761.44
2022-10-28T14:47:01.181Z,97771.78
2022-10-28T14:49:34.192Z,97759.34
2022-10-28T14:52:15.655Z,97751.72
2022-10-28T14:54:44.501Z,97751.59
2022-10-28T14:57:11.204Z,97747.91
2022-10-28T14:59:47.572Z,97744.84
2022-10-28T15:02:19.478Z,97741.06
2022-10-28T15:04:48.449Z,97739.84
2022-10-28T15:07:23.790Z,97738.91
2022-10-28T15:09:53.539Z,97743.13
2022-10-28T15:12:28.655Z,97736.56
2022-10-28T15:14:57.124Z,97732.22
2022-10-28T15:17:26.676Z,97730.81
2022-10-28T15:19:57.921Z,97738.88
2022-10-28T15:22:25.541Z,97732.81
2022-10-28T15:24:54.224Z,97734.75
2022-10-28T15:27:22.459Z,97740.22
2022-10-28T15:29:55.882Z,97729.00
2022-10-28T15:32:22.358Z,97726.88
2022-10-28T15:34:49.361Z,97718.66
2022-10-28T15:37:18.043Z,97727.38
2022-10-28T15:39:49.300Z,97725.16
2022-10-28T15:42:41.622Z,97722.84
2022-10-28T15:45:22.997Z,97726.22
2022-10-28T15:47:49.752Z,97731.28
2022-10-28T15:50:18.552Z,97724.63
2022-10-28T15:52:51.198Z,97726.16
2022-10-28T15:56:02.346Z,97729.09
2022-10-28T15:58:19.404Z,97732.25
2022-10-28T16:00:56.880Z,97732.78
2022-10-28T16:03:42.413Z,97736.13
2022-10-28T16:06:33.757Z,97738.25
2022-10-28T16:09:01.528Z,97750.22
2022-10-28T16:11:31.562Z,97756.69
2022-10-28T16:13:58.703Z,97755.81
2022-10-28T16:16:29.001Z,97754.50
2022-10-28T16:19:11.387Z,97754.50
2022-10-28T16:21:41.147Z,97761.19
2022-10-28T16:24:10.372Z,97757.47
2022-10-28T16:26:39.425Z,97763.91
2022-10-28T16:29:05.998Z,97756.44
2022-10-28T16:31:32.658Z,97765.75
2022-10-28T16:34:01.829Z,97762.03
2022-10-28T16:36:28.615Z,97762.69
2022-10-28T16:38:57.638Z,97757.81
2022-10-28T16:41:26.909Z,97770.81
2022-10-28T16:43:56.054Z,97778.69
2022-10-28T16:46:25.245Z,97776.28
2022-10-28T16:48:56.345Z,97776.47
2022-10-28T16:51:22.923Z,97774.34
2022-10-28T16:53:51.911Z,97777.59
2022-10-28T16:56:18.505Z,97772.56
2022-10-28T16:58:48.076Z,97788.56
2022-10-28T17:01:22.597Z,97787.25
2022-10-28T17:03:51.325Z,97789.22
2022-10-28T17:06:17.823Z,97793.75
2022-10-28T17:09:02.362Z,97769.84
2022-10-28T17:13:57.646Z,97785.66
2022-10-28T17:16:25.357Z,97780.81
2022-10-28T17:18:51.947Z,97791.13
2022-10-28T17:21:18.765Z,97791.25
2022-10-28T17:23:47.634Z,97787.38
2022-10-28T17:26:16.825Z,97792.50
2022-10-28T17:28:45.572Z,97799.41
2022-10-28T17:31:12.144Z,97784.81
2022-10-28T17:33:38.702Z,97798.56
2022-10-28T17:36:09.006Z,97798.22
2022-10-28T17:38:38.062Z,97803.41
2022-10-28T17:41:06.992Z,97803.16
2022-10-28T17:43:35.991Z,97803.59
2022-10-28T17:46:06.803Z,97799.84
2022-10-28T17:48:36.163Z,97802.16
2022-10-28T17:51:02.721Z,97814.94
2022-10-28T17:53:29.519Z,97812.19
2022-10-28T17:56:00.549Z,97812.38
2022-10-28T17:58:29.587Z,97817.31
2022-10-28T18:01:02.604Z,97811.09
2022-10-28T18:03:35.542Z,97819.69
2022-10-28T18:06:13.131Z,97819.78
2022-10-28T18:08:42.144Z,97819.06
2022-10-28T18:11:12.696Z,97815.97
2022-10-28T18:13:42.134Z,97826.22
2022-10-28T18:16:17.216Z,97826.03
2022-10-28T18:18:44.033Z,97828.56
2022-10-28T18:21:12.010Z,97837.38
2022-10-28T18:23:41.498Z,97845.22
2022-10-28T18:26:12.418Z,97845.28
2022-10-28T18:28:42.454Z,97846.56
2022-10-28T18:31:19.997Z,97841.22
2022-10-28T18:33:47.111Z,97843.25
2022-10-28T18:36:23.937Z,97849.19
2022-10-28T18:38:54.040Z,97848.50
2022-10-28T18:41:24.033Z,97846.88
2022-10-28T18:44:00.716Z,97840.75
2022-10-28T18:46:28.938Z,97841.38
2022-10-28T18:49:02.118Z,97847.94
2022-10-28T18:51:28.810Z,97832.56
2022-10-28T18:53:56.582Z,97846.13
2022-10-28T18:56:26.513Z,97845.78
2022-10-28T18:58:53.134Z,97839.34
2022-10-28T19:01:23.797Z,97849.97
2022-10-28T19:03:57.263Z,97848.63
2022-10-28T19:06:24.959Z,97855.75
2022-10-28T19:08:58.559Z,97856.28
2022-10-28T19:11:30.356Z,97860.66
2022-10-28T19:14:02.273Z,97866.97
2022-10-28T19:16:30.756Z,97867.44
2022-10-28T19:18:59.279Z,97870.47
2022-10-28T19:21:27.279Z,97857.16
2022-10-28T19:23:54.835Z,97859.63
2022-10-28T19:26:23.024Z,97863.13
2022-10-28T19:28:50.419Z,97856.59
2022-10-28T19:31:23.499Z,97861.69
2022-10-28T19:33:52.165Z,97866.31
2022-10-28T19:36:23.968Z,97861.97
2022-10-28T19:38:54.007Z,97864.75
2022-10-28T19:41:23.165Z,97867.06
2022-10-28T19:43:56.834Z,97871.47
2022-10-28T19:46:26.941Z,97878.66
2022-10-28T19:48:55.642Z,97889.56
2022-10-28T19:51:29.839Z,97875.56
2022-10-28T19:53:59.343Z,97880.59
2022-10-28T19:56:27.609Z,97867.66
2022-10-28T19:58:56.369Z,97874.97
2022-10-28T20:01:24.839Z,97869.94
2022-10-28T20:03:52.620Z,97872.25
2022-10-28T20:06:24.427Z,97873.38
2022-10-28T20:08:51.015Z,97879.28
2022-10-28T20:11:24.689Z,97884.16
2022-10-28T20:13:57.686Z,97865.97
2022-10-28T20:16:27.964Z,97873.91
2022-10-28T20:18:57.826Z,97877.06
2022-10-28T20:21:26.701Z,97875.19
2022-10-28T20:23:56.567Z,97879.47
2022-10-28T20:26:27.624Z,97885.56
2022-10-28T20:28:57.015Z,97881.06
2022-10-28T20:31:26.586Z,97882.22
2022-10-28T20:33:55.377Z,97883.13
2022-10-28T20:36:39.283Z,97888.16
2022-10-28T20:39:22.107Z,97903.78
2022-10-28T20:41:53.796Z,97904.53
2022-10-28T20:44:26.357Z,97903.81
2022-10-28T20:46:55.240Z,97891.69
2022-10-28T20:49:23.998Z,97903.38
2022-10-28T20:51:53.040Z,97893.31
2022-10-28T20:54:22.031Z,97899.09
2022-10-28T20:56:50.833Z,97893.13
2022-10-28T20:59:19.658Z,97892.00
2022-10-28T21:01:49.649Z,97892.41
2022-10-28T21:04:16.311Z,97897.81
2022-10-28T21:06:45.110Z,97896.25
2022-10-28T21:09:12.196Z,97896.66
2022-10-28T21:11:38.912Z,97891.78
2022-10-28T21:14:05.908Z,97892.53
2022-10-28T21:16:33.413Z,97886.31
2022-10-28T21:18:59.991Z,97892.22
2022-10-28T21:21:30.351Z,97895.75
2022-10-28T21:23:56.938Z,97896.53
2022-10-28T21:26:23.511Z,97893.47
2022-10-28T21:28:54.861Z,97901.63
2022-10-28T21:31:23.970Z,97903.16
2022-10-28T21:33:53.853Z,97896.16
2022-10-28T21:36:22.252Z,97893.78
2022-10-28T21:38:57.939Z,97885.34
2022-10-28T21:41:29.234Z,97895.38
2022-10-28T21:43:58.033Z,97893.13
2022-10-28T21:46:24.673Z,97895.88
2022-10-28T21:48:52.535Z,97901.78
2022-10-28T21:51:19.506Z,97880.19
2022-10-28T21:53:49.275Z,97897.59
2022-10-28T21:56:20.133Z,97894.09
2022-10-28T21:58:53.030Z,97895.72
2022-10-28T22:01:25.659Z,97896.91
2022-10-28T22:03:56.685Z,97900.72
2022-10-28T22:06:23.668Z,97887.22
2022-10-28T22:08:56.065Z,97891.50
2022-10-28T22:11:24.136Z,97893.84
2022-10-28T22:14:02.429Z,97906.72
2022-10-28T22:16:33.299Z,97902.88
2022-10-28T22:19:07.650Z,97900.53
2022-10-28T22:21:40.065Z,97894.31
2022-10-28T22:24:09.323Z,97898.97
2022-10-28T22:26:35.875Z,97898.91
2022-10-28T22:29:05.023Z,97890.44
2022-10-28T22:31:32.688Z,97893.16
2022-10-28T22:34:00.117Z,97888.13
2022-10-28T22:36:31.545Z,97891.97
2022-10-28T22:39:00.319Z,97887.72
2022-10-28T22:41:29.312Z,97895.09
2022-10-28T22:43:58.648Z,97889.28
2022-10-28T22:46:28.224Z,97897.44
2022-10-28T22:48:55.458Z,97896.66
2022-10-28T22:51:22.698Z,97888.84
2022-10-28T22:53:49.739Z,97893.53
2022-10-28T22:56:21.567Z,97899.28
2022-10-28T22:58:52.286Z,97884.91
2022-10-28T23:01:20.542Z,97887.13
2022-10-28T23:03:49.749Z,97888.66
2022-10-28T23:06:18.977Z,97887.47
2022-10-28T23:08:45.913Z,97883.22
2022-10-28T23:11:14.052Z,97892.13
2022-10-28T23:13:40.743Z,97877.34
2022-10-28T23:16:09.272Z,97880.00
2022-10-28T23:18:36.999Z,97880.31
2022-10-28T23:21:09.729Z,97873.31
2022-10-28T23:23:36.346Z,97876.34
2022-10-28T23:26:03.424Z,97876.31
2022-10-28T23:28:30.031Z,97876.31
2022-10-28T23:31:04.117Z,97886.31
2022-10-28T23:33:32.052Z,97873.22
2022-10-28T23:36:00.012Z,97884.38
2022-10-28T23:38:26.894Z,97879.69
2022-10-28T23:41:00.747Z,97876.97
2022-10-28T23:43:29.210Z,97883.97
2022-10-28T23:45:56.623Z,97877.81
2022-10-28T23:48:24.036Z,97882.94
2022-10-28T23:50:51.268Z,97879.91
2022-10-28T23:53:18.690Z,97883.56
2022-10-28T23:55:47.367Z,97859.19
2022-10-28T23:58:15.266Z,97878.66
